Five Points, South Carolina
Current Conditions -  °F | °C
As of 8:53 AM on Sunday 23 Nov 2014 (Local Time) from KCUB Reporting Station
Light Rain Light Rain  
Wind Chill: 53°   Ceiling: 6000
Heat Index: 53°   Visibility: 8mi
Dew Point: 50°   Wind: 5mph
Humidity: 89%   Direction: 80°E
Pressure: 30.15"   Gusts: NA
Location:  33.9899°N, 80.9969°W
Report Text: KCUB 231353Z AUTO 08004KT 8SM -RA OVC060 12/10 A3015 RMK AO2 SLP209 P0005 T01170100
Loading
Personal Weather Stations






























Interactive Weather Map New forecast layout! Learn more

10-Day Weather Forecast

Advertisements
Track Severe Weather on mobile